createdAt,value
2022-09-25T00:04:41.867Z,68.10
2022-09-25T00:07:45.491Z,66.00
2022-09-25T00:10:16.658Z,63.70
2022-09-25T00:13:07.732Z,61.00
2022-09-25T00:15:56.496Z,60.10
2022-09-25T00:18:55.003Z,62.80
2022-09-25T00:21:31.576Z,63.40
2022-09-25T00:24:14.069Z,68.00
2022-09-25T00:27:01.856Z,70.70
2022-09-25T00:29:40.036Z,63.00
2022-09-25T00:32:12.578Z,66.30
2022-09-25T00:34:59.077Z,64.80
2022-09-25T00:37:30.744Z,63.20
2022-09-25T00:40:04.012Z,62.90
2022-09-25T00:42:34.036Z,57.60
2022-09-25T00:45:18.719Z,56.80
2022-09-25T00:48:06.684Z,59.10
2022-09-25T00:51:04.315Z,58.80
2022-09-25T00:53:44.027Z,60.50
2022-09-25T00:56:15.646Z,64.00
2022-09-25T00:58:50.803Z,60.70
2022-09-25T01:01:20.044Z,57.50
2022-09-25T01:03:56.340Z,59.10
2022-09-25T01:06:32.070Z,57.80
2022-09-25T01:09:05.089Z,55.20
2022-09-25T01:14:11.152Z,49.00
2022-09-25T01:17:09.268Z,54.70
2022-09-25T01:19:53.095Z,53.00
2022-09-25T01:22:42.866Z,50.90
2022-09-25T01:26:16.160Z,50.20
2022-09-25T01:29:02.070Z,51.10
2022-09-25T01:32:20.668Z,49.90
2022-09-25T01:35:11.350Z,49.50
2022-09-25T01:37:55.665Z,53.10
2022-09-25T01:40:54.406Z,53.70
2022-09-25T01:43:39.876Z,50.90
2022-09-25T01:46:24.438Z,51.40
2022-09-25T01:49:07.725Z,52.50
2022-09-25T01:51:50.640Z,50.30
2022-09-25T01:54:41.733Z,48.60
2022-09-25T01:57:28.312Z,48.50
2022-09-25T02:00:08.966Z,47.10
2022-09-25T02:02:50.280Z,46.90
2022-09-25T02:05:47.452Z,46.80
2022-09-25T02:08:49.118Z,46.20
2022-09-25T02:11:20.456Z,46.30
2022-09-25T02:14:01.573Z,43.80
2022-09-25T02:16:44.312Z,43.70
2022-09-25T02:19:35.624Z,44.50
2022-09-25T02:22:37.295Z,43.70
2022-09-25T02:25:24.489Z,43.00
2022-09-25T02:27:54.596Z,44.60
2022-09-25T02:30:30.236Z,44.60
2022-09-25T02:33:02.557Z,44.30
2022-09-25T02:35:34.353Z,43.70
2022-09-25T02:38:04.671Z,42.90
2022-09-25T02:40:52.431Z,43.50
2022-09-25T02:43:31.822Z,43.80
2022-09-25T02:46:39.666Z,44.80
2022-09-25T02:50:31.676Z,45.40
2022-09-25T02:56:45.362Z,51.60
2022-09-25T02:59:42.045Z,53.60
2022-09-25T03:02:13.514Z,52.60
2022-09-25T03:04:49.549Z,53.30
2022-09-25T03:07:24.506Z,51.30
2022-09-25T03:10:01.729Z,50.60
2022-09-25T03:12:37.372Z,50.80
2022-09-25T03:15:10.832Z,50.70
2022-09-25T03:17:51.894Z,52.00
2022-09-25T03:20:29.626Z,52.40
2022-09-25T03:23:01.698Z,49.50
2022-09-25T03:25:38.914Z,48.70
2022-09-25T03:28:23.572Z,50.50
2022-09-25T03:31:13.123Z,48.60
2022-09-25T03:33:59.047Z,49.40
2022-09-25T03:36:33.128Z,47.80
2022-09-25T03:39:06.577Z,49.40
2022-09-25T03:41:41.877Z,50.10
2022-09-25T03:44:12.484Z,48.80
2022-09-25T03:46:42.676Z,46.90
2022-09-25T03:49:23.896Z,50.20
2022-09-25T03:51:53.462Z,51.30
2022-09-25T03:54:32.183Z,49.70
2022-09-25T03:57:08.741Z,50.20
2022-09-25T03:59:43.818Z,49.20
2022-09-25T04:02:15.296Z,50.20
2022-09-25T04:04:47.682Z,48.90
2022-09-25T04:07:17.691Z,48.40
2022-09-25T04:09:50.092Z,49.20
2022-09-25T04:12:19.538Z,49.30
2022-09-25T04:14:53.155Z,50.40
2022-09-25T04:17:29.667Z,51.40
2022-09-25T04:20:02.769Z,52.40
2022-09-25T04:22:36.659Z,49.30
2022-09-25T04:25:10.433Z,49.70
2022-09-25T04:27:46.498Z,50.30
2022-09-25T04:30:34.308Z,49.60
2022-09-25T04:33:29.686Z,49.50
2022-09-25T04:36:08.261Z,52.20
2022-09-25T04:38:43.324Z,50.20
2022-09-25T04:41:20.040Z,51.30
2022-09-25T04:44:08.050Z,50.70
2022-09-25T04:46:41.048Z,49.00
2022-09-25T04:49:10.791Z,49.70
2022-09-25T04:51:44.332Z,52.40
2022-09-25T04:54:18.351Z,51.10
2022-09-25T04:56:59.444Z,48.20
2022-09-25T04:59:34.335Z,49.30
2022-09-25T05:02:54.606Z,52.40
2022-09-25T05:15:36.902Z,48.90
2022-09-25T05:18:23.740Z,49.40
2022-09-25T05:21:09.297Z,52.00
2022-09-25T05:23:52.192Z,55.60
2022-09-25T05:26:37.212Z,59.20
2022-09-25T05:29:07.014Z,52.30
2022-09-25T05:31:37.067Z,52.20
2022-09-25T05:34:07.940Z,48.70
2022-09-25T05:36:40.730Z,47.80
2022-09-25T05:39:14.668Z,47.20
2022-09-25T05:41:45.930Z,47.50
2022-09-25T05:44:20.244Z,47.10
2022-09-25T05:47:19.599Z,47.30
2022-09-25T05:49:49.968Z,46.90
2022-09-25T05:52:46.900Z,47.20
2022-09-25T06:05:41.281Z,45.30
2022-09-25T06:18:51.296Z,44.50
2022-09-25T06:21:22.802Z,42.40
2022-09-25T06:23:52.453Z,42.40
2022-09-25T06:26:29.170Z,41.00
2022-09-25T06:29:57.673Z,38.30
2022-09-25T06:32:24.165Z,40.60
2022-09-25T06:35:04.758Z,41.00
2022-09-25T06:37:47.936Z,39.40
2022-09-25T06:40:26.921Z,41.60
2022-09-25T06:43:34.520Z,40.60
2022-09-25T06:46:06.474Z,40.00
2022-09-25T06:48:41.963Z,41.20
2022-09-25T06:54:24.266Z,40.20
2022-09-25T06:56:55.229Z,39.60
2022-09-25T06:59:36.559Z,40.00
2022-09-25T07:02:30.490Z,40.20
2022-09-25T07:05:10.818Z,38.40
2022-09-25T07:07:41.346Z,39.70
2022-09-25T07:10:11.510Z,39.40
2022-09-25T07:12:47.201Z,41.00
2022-09-25T07:15:17.620Z,37.70
2022-09-25T07:17:50.562Z,37.70
2022-09-25T07:20:29.090Z,37.00
2022-09-25T07:24:45.625Z,37.80
2022-09-25T07:26:12.811Z,36.80
2022-09-25T07:28:45.830Z,37.90
2022-09-25T07:31:22.868Z,38.30
2022-09-25T07:33:57.687Z,37.30
2022-09-25T07:36:30.166Z,37.90
2022-09-25T07:39:23.962Z,38.20
2022-09-25T07:41:59.507Z,35.50
2022-09-25T07:44:48.461Z,39.50
2022-09-25T07:47:22.050Z,37.30
2022-09-25T07:50:04.883Z,37.50
2022-09-25T07:52:52.081Z,37.00
2022-09-25T07:55:24.669Z,35.60
2022-09-25T07:57:57.734Z,35.10
2022-09-25T08:00:47.923Z,35.10
2022-09-25T08:03:18.466Z,34.50
2022-09-25T08:05:51.761Z,36.70
2022-09-25T08:08:23.760Z,34.50
2022-09-25T08:11:11.590Z,34.40
2022-09-25T08:13:47.172Z,36.90
2022-09-25T08:16:19.416Z,31.00
2022-09-25T08:18:53.857Z,27.00
2022-09-25T08:21:23.702Z,27.30
2022-09-25T08:23:58.889Z,28.50
2022-09-25T08:26:50.533Z,28.70
2022-09-25T08:29:29.600Z,24.20
2022-09-25T08:32:30.513Z,24.70
2022-09-25T08:35:02.365Z,23.00
2022-09-25T08:37:47.432Z,24.90
2022-09-25T08:40:23.426Z,25.50
2022-09-25T08:43:00.381Z,25.30
2022-09-25T08:46:03.996Z,25.80
2022-09-25T08:49:04.128Z,22.90
2022-09-25T08:51:53.096Z,22.90
2022-09-25T08:54:43.408Z,23.20
2022-09-25T08:57:48.970Z,23.00
2022-09-25T09:00:31.155Z,25.00
2022-09-25T09:03:08.352Z,24.90
2022-09-25T09:05:48.209Z,24.30
2022-09-25T09:08:32.440Z,24.10
2022-09-25T09:11:15.690Z,22.00
2022-09-25T09:14:08.112Z,22.10
2022-09-25T09:17:18.603Z,21.80
2022-09-25T09:20:31.100Z,19.70
2022-09-25T09:23:21.637Z,18.30
2022-09-25T09:26:28.443Z,16.20
2022-09-25T09:29:33.557Z,17.70
2022-09-25T09:32:31.481Z,18.20
2022-09-25T09:35:16.221Z,17.70
2022-09-25T09:38:12.767Z,16.40
2022-09-25T09:41:22.972Z,19.20
2022-09-25T09:44:32.985Z,18.80
2022-09-25T09:47:21.497Z,18.00
2022-09-25T09:50:26.727Z,18.20
2022-09-25T09:53:06.256Z,18.10
2022-09-25T09:55:45.402Z,13.00
2022-09-25T09:58:36.062Z,13.20
2022-09-25T10:01:28.986Z,13.10
2022-09-25T10:04:26.515Z,10.60
2022-09-25T10:07:12.409Z,8.30
2022-09-25T10:09:44.201Z,9.00
2022-09-25T10:12:37.841Z,9.30
2022-09-25T10:15:58.574Z,10.10
2022-09-25T10:18:41.290Z,8.50
2022-09-25T10:21:16.554Z,9.10
2022-09-25T10:23:51.365Z,10.60
2022-09-25T10:26:42.352Z,10.20
2022-09-25T10:29:21.027Z,10.90
2022-09-25T10:32:06.953Z,9.40
2022-09-25T10:34:36.249Z,9.10
2022-09-25T10:37:20.482Z,9.20
2022-09-25T10:40:22.955Z,7.60
2022-09-25T10:43:20.745Z,7.90
2022-09-25T10:46:15.211Z,9.50
2022-09-25T10:49:06.999Z,7.40
2022-09-25T10:51:39.868Z,8.20
2022-09-25T10:54:17.887Z,9.40
2022-09-25T10:56:51.741Z,8.60
2022-09-25T10:59:24.926Z,8.40
2022-09-25T11:01:56.778Z,9.70
2022-09-25T11:04:40.531Z,10.00
2022-09-25T11:07:27.651Z,9.40
2022-09-25T11:10:01.084Z,8.50
2022-09-25T11:12:34.563Z,9.20
2022-09-25T11:15:09.823Z,8.60
2022-09-25T11:17:44.474Z,8.30
2022-09-25T11:20:16.804Z,10.70
2022-09-25T11:22:59.018Z,8.10
2022-09-25T11:26:01.679Z,7.70
2022-09-25T11:29:05.422Z,7.40
2022-09-25T11:32:04.999Z,6.90
2022-09-25T11:35:41.347Z,6.90
2022-09-25T12:11:03.015Z,5.40
2022-09-25T12:13:58.278Z,5.40
2022-09-25T12:17:15.905Z,4.70
2022-09-25T12:20:16.554Z,5.60
2022-09-25T12:22:58.360Z,5.30
2022-09-25T12:25:58.768Z,5.60
2022-09-25T12:28:55.562Z,4.90
2022-09-25T12:31:42.154Z,5.50
2022-09-25T12:34:42.293Z,6.00
2022-09-25T12:37:43.644Z,6.00
2022-09-25T12:40:37.335Z,5.50
2022-09-25T12:43:36.615Z,5.40
2022-09-25T12:46:30.175Z,4.90
2022-09-25T12:49:24.490Z,5.00
2022-09-25T12:52:05.689Z,5.60
2022-09-25T12:54:42.987Z,5.60
2022-09-25T12:58:10.078Z,5.80
2022-09-25T13:00:46.677Z,5.90
2022-09-25T13:03:39.283Z,4.90
2022-09-25T13:06:31.320Z,6.20
2022-09-25T13:12:09.272Z,6.40
2022-09-25T13:14:42.902Z,5.20
2022-09-25T13:17:15.520Z,4.70
2022-09-25T13:20:28.959Z,5.20
2022-09-25T13:23:06.800Z,8.10
2022-09-25T13:25:50.074Z,5.60
2022-09-25T13:28:34.933Z,4.60
2022-09-25T13:31:11.240Z,4.30
2022-09-25T13:33:51.400Z,4.90
2022-09-25T13:36:23.684Z,4.30
2022-09-25T13:39:25.729Z,4.80
2022-09-25T13:41:58.161Z,4.00
2022-09-25T13:44:45.231Z,3.90
2022-09-25T13:47:25.729Z,4.20
2022-09-25T13:50:10.786Z,3.90
2022-09-25T13:52:40.029Z,4.10
2022-09-25T13:55:21.235Z,3.50
2022-09-25T13:58:02.332Z,4.50
2022-09-25T14:00:38.005Z,3.00
2022-09-25T14:03:47.542Z,3.50
2022-09-25T14:06:39.266Z,5.60
2022-09-25T14:12:25.553Z,4.10
2022-09-25T14:15:19.108Z,3.90
2022-09-25T14:17:53.104Z,3.80
2022-09-25T14:20:34.209Z,3.80
2022-09-25T14:23:33.387Z,11.10
2022-09-25T14:26:25.715Z,7.30
2022-09-25T14:28:58.263Z,4.50
2022-09-25T14:31:29.690Z,4.60
2022-09-25T14:34:30.115Z,4.00
2022-09-25T14:37:51.592Z,4.00
2022-09-25T14:41:13.202Z,4.00
2022-09-25T14:43:56.782Z,4.30
2022-09-25T14:46:26.680Z,4.10
2022-09-25T14:49:24.468Z,4.40
2022-09-25T14:52:05.896Z,4.10
2022-09-25T14:55:00.457Z,4.40
2022-09-25T14:57:39.688Z,3.70
2022-09-25T15:00:17.271Z,4.60
2022-09-25T15:02:47.960Z,4.30
2022-09-25T15:05:37.740Z,4.30
2022-09-25T15:08:39.161Z,3.90
2022-09-25T15:11:19.738Z,4.50
2022-09-25T15:13:48.890Z,3.90
2022-09-25T15:16:45.302Z,3.50
2022-09-25T15:19:25.906Z,3.90
2022-09-25T15:21:55.604Z,4.30
2022-09-25T15:24:30.877Z,4.40
2022-09-25T15:27:06.279Z,4.30
2022-09-25T15:29:43.657Z,4.50
2022-09-25T15:32:40.397Z,4.80
2022-09-25T15:35:22.498Z,4.40
2022-09-25T15:38:11.124Z,4.20
2022-09-25T15:40:41.799Z,4.60
2022-09-25T15:43:26.078Z,4.20
2022-09-25T15:46:37.649Z,42.90
2022-09-25T15:49:07.141Z,12.40
2022-09-25T15:51:36.541Z,6.40
2022-09-25T15:54:32.504Z,5.20
2022-09-25T15:57:17.345Z,5.30
2022-09-25T16:00:08.555Z,4.30
2022-09-25T16:03:01.987Z,4.10
2022-09-25T16:05:35.521Z,4.50
2022-09-25T16:08:36.374Z,5.80
2022-09-25T16:11:23.229Z,4.90
2022-09-25T16:14:29.371Z,6.30
2022-09-25T16:17:00.144Z,5.60
2022-09-25T16:19:33.762Z,5.50
2022-09-25T16:22:23.998Z,8.10
2022-09-25T16:24:55.876Z,11.40
2022-09-25T16:27:34.470Z,10.30
2022-09-25T16:30:16.454Z,9.70
2022-09-25T16:32:51.697Z,9.10
2022-09-25T16:36:09.293Z,9.90
2022-09-25T16:38:45.498Z,12.40
2022-09-25T16:41:31.375Z,11.00
2022-09-25T16:44:22.296Z,11.80
2022-09-25T16:46:55.285Z,11.30
2022-09-25T16:49:45.136Z,11.20
2022-09-25T16:52:27.778Z,11.40
2022-09-25T16:55:20.927Z,15.20
2022-09-25T16:58:21.950Z,11.70
2022-09-25T17:01:05.006Z,12.50
2022-09-25T17:04:11.277Z,15.60
2022-09-25T17:07:11.906Z,15.30
2022-09-25T17:10:08.239Z,17.10
2022-09-25T17:12:54.345Z,15.30
2022-09-25T17:15:38.620Z,15.80
2022-09-25T17:18:40.862Z,17.90
2022-09-25T17:21:19.308Z,16.60
2022-09-25T17:23:55.138Z,17.10
2022-09-25T17:26:33.039Z,15.80
2022-09-25T17:29:21.893Z,19.90
2022-09-25T17:31:55.889Z,19.00
2022-09-25T17:34:33.383Z,16.90
2022-09-25T17:39:50.141Z,15.90
2022-09-25T17:45:21.638Z,16.00
2022-09-25T17:48:04.807Z,22.50
2022-09-25T17:50:50.968Z,21.20
2022-09-25T17:53:37.970Z,20.60
2022-09-25T17:56:17.001Z,22.00
2022-09-25T17:59:01.709Z,22.30
2022-09-25T18:02:13.332Z,24.60
2022-09-25T18:05:00.523Z,28.90
2022-09-25T18:07:40.250Z,30.30
2022-09-25T18:10:16.704Z,32.30
2022-09-25T18:13:00.456Z,35.80
2022-09-25T18:15:57.377Z,60.00
2022-09-25T18:18:54.176Z,67.60
2022-09-25T18:21:59.361Z,70.20
2022-09-25T18:24:53.909Z,85.70
2022-09-25T18:27:51.781Z,81.30
2022-09-25T18:30:43.942Z,75.90
2022-09-25T18:33:35.520Z,67.60
2022-09-25T18:36:33.342Z,61.30
2022-09-25T18:39:21.992Z,60.30
2022-09-25T18:42:02.786Z,63.50
2022-09-25T18:44:42.601Z,67.40
2022-09-25T18:47:37.491Z,69.60
2022-09-25T18:50:20.778Z,62.90
2022-09-25T18:52:55.020Z,62.80
2022-09-25T18:55:53.017Z,63.90
2022-09-25T18:58:33.884Z,69.40
2022-09-25T19:01:20.273Z,70.20
2022-09-25T19:07:14.635Z,83.00
2022-09-25T19:10:21.221Z,80.40
2022-09-25T19:13:14.949Z,83.60
2022-09-25T19:16:23.939Z,87.80
2022-09-25T19:19:07.059Z,92.70
2022-09-25T19:21:55.496Z,92.80
2022-09-25T19:27:42.573Z,88.30
2022-09-25T19:30:56.309Z,87.50
2022-09-25T19:37:06.007Z,84.00
2022-09-25T19:43:50.389Z,94.40
2022-09-25T19:49:34.047Z,82.20
2022-09-25T19:52:31.035Z,72.70
2022-09-25T19:55:37.629Z,66.50
2022-09-25T19:58:31.191Z,63.50
2022-09-25T20:01:41.379Z,68.20
2022-09-25T20:04:26.522Z,78.70
2022-09-25T20:07:29.187Z,83.00
2022-09-25T20:14:02.347Z,91.80
2022-09-25T20:19:47.110Z,91.70
2022-09-25T20:22:26.460Z,73.40
2022-09-25T20:25:12.610Z,75.60
2022-09-25T20:27:59.106Z,73.60
2022-09-25T20:31:09.255Z,65.10
2022-09-25T20:34:10.760Z,64.70
2022-09-25T20:37:11.934Z,67.90
2022-09-25T20:40:12.428Z,67.60
2022-09-25T20:42:46.002Z,72.20
2022-09-25T20:45:41.206Z,70.90
2022-09-25T20:48:13.310Z,68.20
2022-09-25T20:51:06.910Z,66.70
2022-09-25T20:54:05.194Z,61.20
2022-09-25T21:03:31.371Z,54.20
2022-09-25T21:09:39.050Z,50.60
2022-09-25T21:16:47.257Z,51.80
2022-09-25T21:20:17.540Z,49.10
2022-09-25T21:26:31.386Z,61.40
2022-09-25T21:44:31.587Z,68.70
2022-09-25T21:47:57.969Z,70.50
2022-09-25T21:50:43.701Z,66.00
2022-09-25T21:53:35.800Z,67.50
2022-09-25T21:56:24.768Z,64.70
2022-09-25T21:59:13.310Z,64.00
2022-09-25T22:02:10.024Z,61.90
2022-09-25T22:05:02.798Z,64.30
2022-09-25T22:07:49.299Z,66.80
2022-09-25T22:10:48.100Z,63.20
2022-09-25T22:13:34.446Z,64.10
2022-09-25T22:16:37.000Z,61.40
2022-09-25T22:19:39.902Z,59.90
2022-09-25T22:22:30.806Z,56.00
2022-09-25T22:25:35.454Z,54.90
2022-09-25T22:28:17.596Z,52.20
2022-09-25T22:31:24.868Z,55.90
2022-09-25T22:34:32.492Z,57.90
2022-09-25T22:37:13.717Z,59.40
2022-09-25T22:39:48.326Z,64.80
2022-09-25T22:42:21.316Z,62.50
2022-09-25T22:45:02.902Z,61.70
2022-09-25T22:47:49.757Z,59.20
2022-09-25T22:50:31.728Z,67.80
2022-09-25T22:53:08.741Z,61.40
2022-09-25T22:55:50.699Z,63.90
2022-09-25T22:58:36.113Z,50.30
2022-09-25T23:01:55.030Z,48.00
2022-09-25T23:04:53.581Z,50.50
2022-09-25T23:07:50.007Z,46.60
2022-09-25T23:11:06.277Z,46.80
2022-09-25T23:15:01.272Z,43.20
2022-09-25T23:18:05.906Z,47.20
2022-09-25T23:21:01.458Z,46.40
2022-09-25T23:27:11.033Z,42.40
2022-09-25T23:33:28.975Z,41.30
2022-09-25T23:36:25.921Z,43.00
2022-09-25T23:39:27.155Z,43.10
2022-09-25T23:42:23.806Z,42.80
2022-09-25T23:45:17.282Z,41.90
2022-09-25T23:48:41.237Z,43.60
2022-09-25T23:51:24.666Z,41.70
2022-09-25T23:54:14.215Z,42.90
2022-09-25T23:57:17.323Z,42.90
